Time;durP1;ratioP1;P1;durP2;ratioP2;P2;SDS_P1;SDS_P2;PMS_P1;PMS_P2;Temp;Humidity;BMP_temperature;BMP_pressure;BME280_temperature;BME280_humidity;BME280_pressure;Samples;Min_cycle;Max_cycle;Signal;HPM_P1;HPM_P2
2022/08/04 00:02:06;;;;;;;26.00;19.20;;;;;;;19.07;100.00;101444.78;4994585;28;20444;-41
2022/08/04 00:04:44;;;;;;;21.47;18.80;;;;;;;19.07;100.00;101442.06;4994641;28;20441;-40
2022/08/04 00:07:23;;;;;;;22.83;20.50;;;;;;;19.07;100.00;101447.47;4994233;28;20453;-40
2022/08/04 00:10:10;;;;;;;30.87;19.43;;;;;;;19.03;100.00;101444.41;4994171;28;20458;-42
2022/08/04 00:12:43;;;;;;;23.73;18.07;;;;;;;19.01;100.00;101441.13;4994054;28;20473;-43
2022/08/04 00:15:15;;;;;;;32.27;22.53;;;;;;;19.00;100.00;101441.34;4994359;28;20799;-40
2022/08/04 00:17:46;;;;;;;21.50;18.90;;;;;;;18.99;100.00;101439.72;4993838;28;20981;-40
2022/08/04 00:20:19;;;;;;;31.80;19.90;;;;;;;19.00;100.00;101444.06;4994379;28;20430;-40
2022/08/04 00:22:51;;;;;;;29.60;21.23;;;;;;;18.98;100.00;101444.31;4994101;28;20425;-41
2022/08/04 00:25:19;;;;;;;35.80;21.40;;;;;;;18.97;100.00;101447.22;4994266;28;20440;-42
2022/08/04 00:27:47;;;;;;;30.00;21.53;;;;;;;18.94;100.00;101445.81;4993853;28;20434;-42
2022/08/04 00:30:15;;;;;;;28.23;20.40;;;;;;;18.92;100.00;101447.94;4994251;28;20433;-41
2022/08/04 00:32:42;;;;;;;29.00;20.70;;;;;;;18.90;100.00;101452.78;4993731;28;20474;-41
2022/08/04 00:35:12;;;;;;;28.17;20.03;;;;;;;18.88;100.00;101448.63;4985946;28;20429;-41
2022/08/04 00:37:44;;;;;;;26.47;20.60;;;;;;;18.84;100.00;101448.31;4993275;28;20449;-42
2022/08/04 00:40:24;;;;;;;22.50;18.90;;;;;;;18.83;100.00;101452.06;4993729;28;20424;-40
2022/08/04 00:43:08;;;;;;;26.87;19.80;;;;;;;18.84;100.00;101450.19;4993542;28;20432;-42
2022/08/04 00:46:07;;;;;;;24.67;19.30;;;;;;;18.85;100.00;101444.53;4993468;28;20444;-42
2022/08/04 00:49:16;;;;;;;25.10;20.50;;;;;;;18.88;100.00;101446.75;4993251;28;20485;-40
2022/08/04 00:51:49;;;;;;;27.53;19.00;;;;;;;18.86;100.00;101437.25;4978774;28;20449;-40
2022/08/04 00:54:48;;;;;;;22.90;17.73;;;;;;;18.82;100.00;101436.09;4993362;28;20470;-39
2022/08/04 00:57:30;;;;;;;31.80;19.70;;;;;;;18.78;100.00;101427.63;4993294;28;20831;-40
2022/08/04 01:00:08;;;;;;;23.23;19.13;;;;;;;18.73;100.00;101422.91;4993128;28;20461;-40
2022/08/04 01:02:39;;;;;;;22.40;19.07;;;;;;;18.69;100.00;101421.75;4993049;28;20429;-41
2022/08/04 01:05:20;;;;;;;24.90;18.93;;;;;;;18.66;100.00;101406.00;4993407;28;20437;-40
2022/08/04 01:08:26;;;;;;;21.90;18.40;;;;;;;18.65;100.00;101411.63;4992803;28;20433;-40
2022/08/04 01:11:03;;;;;;;23.00;17.23;;;;;;;18.61;100.00;101413.97;4975850;28;20942;-40
2022/08/04 01:13:54;;;;;;;33.70;20.60;;;;;;;18.56;100.00;101415.72;4992843;28;20473;-40
2022/08/04 01:16:26;;;;;;;24.70;19.87;;;;;;;18.54;100.00;101415.97;4993072;28;20453;-42
2022/08/04 01:18:59;;;;;;;34.67;20.97;;;;;;;18.51;100.00;101410.19;4992823;28;20835;-40
2022/08/04 01:22:05;;;;;;;26.73;21.17;;;;;;;18.47;100.00;101403.56;4993085;28;20429;-40
2022/08/04 01:25:02;;;;;;;25.60;20.80;;;;;;;18.42;100.00;101403.47;4991192;28;20437;-40
2022/08/04 01:27:55;;;;;;;21.40;19.20;;;;;;;18.40;100.00;101400.19;4992758;28;20847;-41
2022/08/04 01:30:26;;;;;;;28.47;20.53;;;;;;;18.37;100.00;101398.75;4992669;28;20923;-40
2022/08/04 01:33:02;;;;;;;25.47;20.13;;;;;;;18.37;100.00;101406.03;4992780;28;20425;-41
2022/08/04 01:35:36;;;;;;;25.73;20.73;;;;;;;18.34;100.00;101393.81;4982029;28;20784;-41
2022/08/04 01:38:19;;;;;;;23.63;18.40;;;;;;;18.33;100.00;101388.66;4989686;28;21006;-41
2022/08/04 01:40:52;;;;;;;35.33;23.00;;;;;;;18.38;100.00;101391.47;4992712;28;20466;-42
2022/08/04 01:43:20;;;;;;;25.47;22.07;;;;;;;18.41;100.00;101385.59;4992672;28;20429;-40
2022/08/04 01:45:51;;;;;;;22.93;20.23;;;;;;;18.42;100.00;101389.97;4992336;28;20971;-42
2022/08/04 01:48:24;;;;;;;26.60;20.60;;;;;;;18.46;100.00;101388.41;4992453;28;20472;-42
2022/08/04 01:50:52;;;;;;;30.43;23.40;;;;;;;18.48;100.00;101375.53;4992732;28;20441;-41
2022/08/04 01:53:21;;;;;;;25.43;21.87;;;;;;;18.46;100.00;101385.72;4992298;28;20470;-41
2022/08/04 01:55:52;;;;;;;29.70;21.23;;;;;;;18.44;100.00;101388.66;4992344;28;20464;-40
2022/08/04 01:58:24;;;;;;;25.33;19.80;;;;;;;18.45;100.00;101384.09;4992301;28;20457;-41
2022/08/04 02:01:01;;;;;;;28.10;22.60;;;;;;;18.44;100.00;101383.25;4992517;28;20437;-40
2022/08/04 02:03:33;;;;;;;22.80;20.40;;;;;;;18.44;100.00;101374.34;4992328;28;20434;-43
2022/08/04 02:06:31;;;;;;;34.63;27.07;;;;;;;18.44;100.00;101371.63;4992309;28;20489;-40
2022/08/04 02:09:09;;;;;;;28.07;22.17;;;;;;;18.42;100.00;101369.19;4992026;28;20468;-41
2022/08/04 02:11:41;;;;;;;32.33;25.37;;;;;;;18.44;100.00;101361.66;4992570;28;20442;-42
2022/08/04 02:17:11;;;;;;;27.23;21.23;;;;;;;18.43;100.00;101359.22;4992050;28;20797;-40
2022/08/04 02:19:52;;;;;;;35.23;27.67;;;;;;;18.47;100.00;101354.97;4992042;28;20492;-43
2022/08/04 02:22:24;;;;;;;33.93;24.13;;;;;;;18.48;100.00;101354.75;4992079;28;20463;-42
2022/08/04 02:25:03;;;;;;;31.17;24.70;;;;;;;18.52;100.00;101347.00;4992083;28;20448;-41
2022/08/04 02:27:54;;;;;;;34.40;24.80;;;;;;;18.51;100.00;101348.09;4992301;28;20449;-40
2022/08/04 02:30:31;;;;;;;33.97;26.10;;;;;;;18.52;100.00;101344.31;5011906;28;20812;-41
2022/08/04 02:33:03;;;;;;;36.60;27.10;;;;;;;18.52;100.00;101352.41;5011464;28;20441;-41
2022/08/04 02:35:36;;;;;;;42.70;31.47;;;;;;;18.55;100.00;101350.06;5000960;28;20473;-41
2022/08/04 02:38:12;;;;;;;34.23;27.97;;;;;;;18.59;100.00;101350.44;5007318;28;20471;-42
2022/08/04 02:40:41;;;;;;;32.00;28.70;;;;;;;18.62;100.00;101344.56;5011754;28;20433;-42
2022/08/04 02:43:10;;;;;;;51.90;34.53;;;;;;;18.66;100.00;101343.88;5011392;28;20772;-40
2022/08/04 02:45:42;;;;;;;33.57;27.40;;;;;;;18.66;100.00;101337.63;5011639;28;20433;-41
2022/08/04 02:48:14;;;;;;;33.93;28.37;;;;;;;18.64;100.00;101342.44;5011400;28;20460;-43
2022/08/04 02:50:59;;;;;;;36.03;29.20;;;;;;;18.58;100.00;101346.06;5011782;28;20540;-40
2022/08/04 02:53:28;;;;;;;39.33;27.90;;;;;;;18.60;100.00;101350.22;5011385;28;20440;-41
2022/08/04 02:55:58;;;;;;;35.50;27.53;;;;;;;18.60;100.00;101338.56;5011390;28;20452;-42
2022/08/04 02:58:31;;;;;;;32.37;26.33;;;;;;;18.62;100.00;101331.88;5011360;28;20831;-40
2022/08/04 03:00:59;;;;;;;33.80;27.03;;;;;;;18.63;100.00;101330.81;5011515;28;20794;-43
2022/08/04 03:03:38;;;;;;;30.90;26.23;;;;;;;18.69;100.00;101323.66;5011383;28;20448;-44
2022/08/04 03:06:49;;;;;;;34.20;25.77;;;;;;;18.70;100.00;101326.09;5011428;28;20451;-40
2022/08/04 03:09:40;;;;;;;28.57;25.13;;;;;;;18.70;100.00;101318.00;5011055;28;20479;-41
2022/08/04 03:12:50;;;;;;;26.43;23.90;;;;;;;18.67;100.00;101315.78;5011268;28;20775;-42
2022/08/04 03:15:57;;;;;;;26.83;22.90;;;;;;;18.69;100.00;101323.66;5011180;28;20473;-41
2022/08/04 03:18:45;;;;;;;29.27;22.40;;;;;;;18.67;100.00;101315.78;5004125;28;20830;-40
2022/08/04 03:21:36;;;;;;;25.90;22.23;;;;;;;18.70;100.00;101319.88;5015185;28;20417;-43
2022/08/04 03:24:47;;;;;;;31.53;23.83;;;;;;;18.74;100.00;101313.78;5014693;28;20451;-40
2022/08/04 03:27:55;;;;;;;24.00;20.53;;;;;;;18.78;100.00;101311.44;5011220;28;20459;-41
2022/08/04 03:30:32;;;;;;;23.07;20.27;;;;;;;18.78;100.00;101309.56;5014662;28;20450;-40
2022/08/04 03:33:33;;;;;;;26.80;24.20;;;;;;;18.81;100.00;101307.44;5014327;28;20440;-41
2022/08/04 03:36:31;;;;;;;27.20;22.87;;;;;;;18.83;100.00;101308.00;5005695;28;20475;-40
2022/08/04 03:39:14;;;;;;;24.17;21.67;;;;;;;18.84;100.00;101304.25;5003086;28;20473;-41
2022/08/04 03:42:05;;;;;;;22.57;20.30;;;;;;;18.84;100.00;101306.97;4994694;28;20911;-42
2022/08/04 03:45:14;;;;;;;22.97;20.43;;;;;;;18.83;100.00;101300.72;4994957;28;20444;-42
2022/08/04 03:48:22;;;;;;;19.70;17.60;;;;;;;18.83;100.00;101305.31;4994208;28;20779;-40
2022/08/04 03:54:35;;;;;;;22.43;20.27;;;;;;;18.90;100.00;101296.03;4994553;28;20437;-40
2022/08/04 03:57:35;;;;;;;25.20;21.63;;;;;;;18.92;100.00;101301.19;4982920;28;20525;-42
2022/08/04 04:00:07;;;;;;;24.40;19.40;;;;;;;18.89;100.00;101302.47;4992454;28;20450;-40
2022/08/04 04:03:03;;;;;;;19.70;17.77;;;;;;;18.97;100.00;101303.97;4994515;28;20440;-40
2022/08/04 04:06:03;;;;;;;21.13;19.10;;;;;;;18.99;100.00;101300.00;4994549;28;20800;-41
2022/08/04 04:08:50;;;;;;;25.93;19.17;;;;;;;19.04;100.00;101300.09;4993856;28;20469;-40
2022/08/04 04:11:34;;;;;;;22.13;19.60;;;;;;;19.08;100.00;101284.22;4994253;28;20947;-41
2022/08/04 04:14:42;;;;;;;20.43;18.43;;;;;;;19.15;100.00;101295.72;4994076;28;20473;-42
2022/08/04 04:17:30;;;;;;;21.50;19.27;;;;;;;19.19;100.00;101291.47;4994046;28;20894;-40
2022/08/04 04:20:13;;;;;;;20.43;18.50;;;;;;;19.26;100.00;101289.47;4993967;28;20465;-40
2022/08/04 04:22:57;;;;;;;22.20;19.57;;;;;;;19.37;100.00;101290.47;4994043;28;20440;-40
2022/08/04 04:25:35;;;;;;;19.53;17.63;;;;;;;19.42;100.00;101282.47;4993893;28;20461;-40
2022/08/04 04:28:28;;;;;;;19.57;17.73;;;;;;;19.47;100.00;101285.31;4993359;28;20467;-41
2022/08/04 04:31:43;;;;;;;18.90;16.83;;;;;;;19.46;100.00;101281.78;4994019;28;20441;-41
2022/08/04 04:34:26;;;;;;;19.80;18.00;;;;;;;19.51;100.00;101283.75;4981475;28;20453;-41
2022/08/04 04:37:12;;;;;;;16.73;15.23;;;;;;;19.61;100.00;101289.34;4993865;28;20446;-42
2022/08/04 04:39:50;;;;;;;18.03;16.20;;;;;;;19.72;100.00;101286.59;4993288;28;21012;-41
2022/08/04 04:42:37;;;;;;;18.47;16.60;;;;;;;20.01;100.00;101290.03;4993400;28;20447;-41
2022/08/04 04:45:14;;;;;;;15.97;14.50;;;;;;;20.28;100.00;101287.56;4993756;28;20437;-40
2022/08/04 04:47:54;;;;;;;16.80;15.10;;;;;;;20.58;100.00;101295.31;4993129;28;20511;-40
2022/08/04 04:50:49;;;;;;;14.53;13.10;;;;;;;21.16;100.00;101286.63;4993482;28;20437;-43
2022/08/04 04:53:24;;;;;;;16.30;14.60;;;;;;;21.92;100.00;101288.28;4993284;28;20963;-40
2022/08/04 04:56:00;;;;;;;13.70;12.47;;;;;;;22.77;100.00;101292.72;4993426;28;20487;-41
2022/08/04 04:58:32;;;;;;;14.93;13.50;;;;;;;23.74;100.00;101286.53;4993086;28;20465;-40
2022/08/04 05:01:18;;;;;;;15.17;13.83;;;;;;;24.92;100.00;101289.72;5008999;22;20488;-46
2022/08/04 05:04:07;;;;;;;13.20;12.00;;;;;;;26.15;100.00;101284.09;4986647;28;20961;-47
2022/08/04 05:06:52;;;;;;;15.67;14.30;;;;;;;26.92;91.59;101289.34;4993267;28;20516;-44
2022/08/04 05:09:46;;;;;;;15.10;13.90;;;;;;;27.19;84.50;101279.69;4992573;28;20469;-43
2022/08/04 05:12:37;;;;;;;12.10;11.10;;;;;;;27.55;80.51;101277.31;4992822;28;21149;-45
2022/08/04 05:15:31;;;;;;;12.00;11.20;;;;;;;28.46;76.01;101268.41;4993096;28;20492;-43
2022/08/04 05:18:02;;;;;;;12.47;11.47;;;;;;;29.22;72.28;101278.66;4992821;28;20468;-48
2022/08/04 05:20:34;;;;;;;12.43;11.57;;;;;;;29.79;69.34;101279.84;4992993;28;20425;-43
2022/08/04 05:23:09;;;;;;;10.30;9.60;;;;;;;30.22;66.49;101266.44;4992687;28;20441;-48
2022/08/04 05:25:43;;;;;;;11.57;10.60;;;;;;;30.77;65.18;101274.28;4992879;28;20194;-48
2022/08/04 05:28:30;;;;;;;12.07;11.00;;;;;;;31.21;62.59;101277.69;4992584;28;20226;-45
2022/08/04 05:31:01;;;;;;;10.83;10.03;;;;;;;31.70;60.81;101272.88;4992907;28;20278;-44
2022/08/04 05:33:34;;;;;;;9.00;8.50;;;;;;;32.20;58.46;101271.22;4992544;28;20194;-44
2022/08/04 05:36:07;;;;;;;8.37;6.63;;;;;;;32.82;58.10;101277.03;5000775;28;20214;-48
2022/08/04 05:38:52;;;;;;;10.50;9.45;;;;;;;33.24;55.21;101274.34;4990907;28;20226;-43
2022/08/04 05:41:21;;;;;;;8.18;7.57;;;;;;;33.62;53.97;101282.53;4992434;28;20218;-47
2022/08/04 05:43:49;;;;;;;7.10;6.60;;;;;;;33.78;52.27;101275.25;4992374;28;20194;-49
2022/08/04 05:46:19;;;;;;;9.00;7.55;;;;;;;33.82;49.12;101276.16;4992743;28;20556;-44
2022/08/04 05:48:48;;;;;;;10.50;9.63;;;;;;;33.51;50.17;101265.53;4991882;28;20222;-49
2022/08/04 05:51:16;;;;;;;7.32;6.82;;;;;;;33.60;49.49;101266.28;4992133;28;20222;-45
2022/08/04 05:53:45;;;;;;;9.52;8.75;;;;;;;33.68;49.96;101262.63;4991800;28;20198;-45
2022/08/04 05:56:15;;;;;;;10.93;10.10;;;;;;;33.58;49.25;101260.25;4992509;28;20229;-47
2022/08/04 05:58:44;;;;;;;7.05;6.55;;;;;;;33.32;49.52;101265.19;4992108;28;20226;-45
2022/08/04 06:01:14;;;;;;;8.25;7.45;;;;;;;33.23;48.92;101256.16;4992141;28;20226;-44
2022/08/04 06:03:46;;;;;;;8.00;7.22;;;;;;;33.08;49.20;101260.31;4992304;28;20206;-48
2022/08/04 06:06:15;;;;;;;7.05;6.20;;;;;;;33.09;49.02;101258.38;4991199;28;20290;-49
2022/08/04 06:08:43;;;;;;;8.77;8.05;;;;;;;32.95;48.38;101255.00;4991727;28;20222;-49
2022/08/04 06:11:12;;;;;;;7.28;6.78;;;;;;;32.75;49.30;101253.81;4992202;28;20229;-48
2022/08/04 06:13:43;;;;;;;8.25;7.65;;;;;;;32.61;49.05;101256.81;4991893;28;20199;-44
2022/08/04 06:16:20;;;;;;;8.40;7.70;;;;;;;32.83;49.98;101248.25;4992359;28;20263;-46
2022/08/04 06:19:01;;;;;;;7.45;6.95;;;;;;;32.89;49.91;101248.84;4991835;28;20289;-45
2022/08/04 06:21:50;;;;;;;8.73;7.93;;;;;;;32.82;46.52;101254.09;4991566;28;20726;-44
2022/08/04 06:24:20;;;;;;;10.52;7.95;;;;;;;32.91;45.85;101246.59;4991781;28;20198;-45
2022/08/04 06:26:49;;;;;;;9.27;8.43;;;;;;;32.97;48.03;101244.44;4996155;28;20194;-48
2022/08/04 06:29:23;;;;;;;7.05;6.47;;;;;;;33.53;48.62;101248.59;4991338;28;20225;-46
2022/08/04 06:31:58;;;;;;;7.47;6.88;;;;;;;33.64;47.52;101242.31;4991584;28;20222;-49
2022/08/04 06:34:47;;;;;;;8.15;7.38;;;;;;;33.64;47.69;101241.50;4995755;28;20667;-50
2022/08/04 06:37:15;;;;;;;8.25;7.70;;;;;;;33.64;47.33;101235.97;5003367;28;20218;-46
2022/08/04 06:40:07;;;;;;;6.43;5.97;;;;;;;33.81;45.01;101235.84;4991795;28;20222;-48
2022/08/04 06:42:56;;;;;;;6.43;5.93;;;;;;;33.27;44.96;101235.00;4991794;28;20210;-49
2022/08/04 06:45:24;;;;;;;8.02;7.35;;;;;;;32.63;46.51;101234.38;4992192;28;20225;-45
2022/08/04 06:47:54;;;;;;;9.48;8.70;;;;;;;32.21;47.77;101230.63;4991529;28;20198;-47
2022/08/04 06:50:24;;;;;;;9.25;8.65;;;;;;;31.85;49.95;101232.97;4991892;28;20210;-44
2022/08/04 06:53:12;;;;;;;7.97;7.30;;;;;;;32.00;50.98;101224.97;4995618;28;20206;-50
2022/08/04 06:55:42;;;;;;;8.25;7.18;;;;;;;32.62;49.18;101224.47;4995573;28;20209;-48
2022/08/04 06:58:11;;;;;;;8.70;6.60;;;;;;;33.53;47.75;101220.94;4995077;28;20244;-46
2022/08/04 07:00:41;;;;;;;5.03;4.45;;;;;;;34.47;46.47;101215.22;4995334;28;20289;-46
2022/08/04 07:03:11;;;;;;;6.90;4.18;;;;;;;35.08;44.30;101220.75;4989163;28;20198;-45
2022/08/04 07:05:41;;;;;;;5.25;3.67;;;;;;;35.51;44.06;101223.59;4977041;28;20229;-48
2022/08/04 07:08:11;;;;;;;6.53;4.90;;;;;;;35.60;42.39;101222.69;4967348;28;20700;-46
2022/08/04 07:10:40;;;;;;;4.45;4.05;;;;;;;35.53;42.32;101218.53;4956604;29;20299;-51
2022/08/04 07:13:09;;;;;;;5.15;4.00;;;;;;;35.53;41.69;101209.41;4956312;29;20218;-45
2022/08/04 07:15:41;;;;;;;4.30;3.58;;;;;;;35.63;41.83;101213.66;4956127;29;20202;-45
2022/08/04 07:18:08;;;;;;;7.05;4.00;;;;;;;35.80;41.70;101213.34;4955979;28;20223;-46
2022/08/04 07:20:41;;;;;;;11.48;5.03;;;;;;;35.57;40.49;101202.03;4956174;29;20700;-47
2022/08/04 07:23:12;;;;;;;4.70;4.38;;;;;;;34.78;40.16;101209.13;4956256;29;20199;-48
2022/08/04 07:25:40;;;;;;;11.77;5.32;;;;;;;34.90;40.45;101205.50;4956341;29;20203;-48
2022/08/04 07:28:29;;;;;;;3.83;3.40;;;;;;;34.77;41.86;101206.69;4955804;28;20246;-45
2022/08/04 07:30:58;;;;;;;5.60;4.70;;;;;;;34.92;42.04;101219.81;4956065;29;20701;-43
2022/08/04 07:33:26;;;;;;;7.50;4.07;;;;;;;34.92;41.28;101219.81;4957744;28;20196;-44
2022/08/04 07:35:56;;;;;;;4.03;3.65;;;;;;;35.05;41.04;101206.75;4975437;28;20195;-46
2022/08/04 07:38:38;;;;;;;4.93;4.63;;;;;;;34.62;41.77;101210.97;4955790;28;20227;-47
2022/08/04 07:41:22;;;;;;;8.70;4.47;;;;;;;34.89;41.49;101203.88;4955708;28;20293;-48
2022/08/04 07:44:07;;;;;;;9.75;4.53;;;;;;;34.75;39.97;101197.91;4955983;28;20204;-46
2022/08/04 07:46:36;;;;;;;5.22;4.30;;;;;;;34.72;40.54;101202.19;4954510;28;20622;-48
2022/08/04 07:49:04;;;;;;;5.82;3.75;;;;;;;34.95;40.70;101205.25;4955085;28;20235;-44
2022/08/04 07:51:35;;;;;;;7.68;4.28;;;;;;;34.56;41.49;101200.47;4955701;28;20412;-43
2022/08/04 07:54:04;;;;;;;4.55;4.15;;;;;;;34.19;40.63;101197.66;4955716;28;20203;-45
2022/08/04 07:56:33;;;;;;;5.90;3.72;;;;;;;33.79;40.76;101199.38;4955754;28;20597;-48
2022/08/04 07:59:01;;;;;;;7.13;4.43;;;;;;;33.46;41.78;101190.25;4955279;28;20227;-48
2022/08/04 08:01:30;;;;;;;7.40;4.50;;;;;;;33.42;42.33;101197.63;4955387;28;20258;-43
2022/08/04 08:03:59;;;;;;;5.35;3.72;;;;;;;33.50;41.57;101197.53;4954483;28;20692;-47
2022/08/04 08:06:29;;;;;;;6.90;3.55;;;;;;;33.42;42.14;101187.38;4955270;28;20692;-48
2022/08/04 08:09:07;;;;;;;4.15;3.80;;;;;;;33.55;42.19;101189.03;4955077;28;20282;-45
2022/08/04 08:11:41;;;;;;;7.20;3.72;;;;;;;33.47;42.29;101189.91;4955496;28;20219;-48
2022/08/04 08:14:30;;;;;;;7.80;4.00;;;;;;;33.29;42.33;101175.44;4955480;28;20286;-44
2022/08/04 08:16:58;;;;;;;7.13;4.17;;;;;;;33.31;42.06;101177.84;4955384;28;20230;-43
2022/08/04 08:19:26;;;;;;;4.93;3.93;;;;;;;33.10;42.52;101180.63;4954553;28;20307;-44
2022/08/04 08:21:54;;;;;;;4.30;3.90;;;;;;;32.66;42.34;101184.00;4955321;28;20226;-46
2022/08/04 08:24:28;;;;;;;4.00;3.60;;;;;;;32.67;42.27;101183.69;4955262;28;20210;-45
2022/08/04 08:26:56;;;;;;;4.40;4.00;;;;;;;32.72;42.74;101183.47;4955253;28;20282;-43
2022/08/04 08:29:25;;;;;;;8.68;4.10;;;;;;;32.77;41.89;101177.75;4954625;28;20234;-45
2022/08/04 08:31:54;;;;;;;5.73;3.83;;;;;;;32.62;42.67;101172.81;4955168;28;20219;-46
2022/08/04 08:34:30;;;;;;;4.73;4.27;;;;;;;32.93;42.54;101172.44;4965105;28;20197;-44
2022/08/04 08:37:04;;;;;;;5.70;3.40;;;;;;;33.19;41.61;101170.31;4974055;28;20581;-44
2022/08/04 08:39:41;;;;;;;7.87;3.90;;;;;;;33.46;41.80;101166.16;4973776;28;20229;-46
2022/08/04 08:42:22;;;;;;;7.47;5.00;;;;;;;33.38;42.06;101167.06;4974187;28;20253;-47
2022/08/04 08:45:50;;;;;;;7.35;3.92;;;;;;;33.14;41.57;101156.72;4974228;28;20202;-43
2022/08/04 08:48:46;;;;;;;5.47;4.37;;;;;;;32.82;41.21;101163.78;4939171;28;20222;-45
2022/08/04 08:51:27;;;;;;;4.40;3.97;;;;;;;32.70;40.90;101157.34;4973865;28;20229;-46
2022/08/04 08:54:14;;;;;;;10.50;4.53;;;;;;;32.72;41.11;101155.06;4973702;28;20686;-45
2022/08/04 08:56:57;;;;;;;4.93;4.03;;;;;;;32.77;40.74;101146.56;4974201;28;20209;-48
2022/08/04 08:59:37;;;;;;;8.53;3.93;;;;;;;32.82;41.20;101147.19;4973390;28;20231;-44
2022/08/04 09:02:42;;;;;;;4.73;4.07;;;;;;;32.86;40.09;101148.13;4973554;28;20726;-43
2022/08/04 09:05:24;;;;;;;6.90;3.90;;;;;;;33.03;40.45;101144.44;4973911;28;20198;-45
2022/08/04 09:08:19;;;;;;;7.93;4.10;;;;;;;33.03;40.36;101149.97;4973484;28;20202;-43
2022/08/04 09:10:50;;;;;;;6.27;3.77;;;;;;;33.07;39.97;101148.16;4973493;28;20585;-44
2022/08/04 09:13:26;;;;;;;3.47;3.10;;;;;;;33.11;40.45;101140.81;4973516;28;20203;-43
2022/08/04 09:15:59;;;;;;;5.00;3.80;;;;;;;33.31;40.36;101151.03;4973652;28;20203;-44
2022/08/04 09:18:36;;;;;;;7.33;4.00;;;;;;;33.42;40.02;101136.78;4972941;28;20223;-43
2022/08/04 09:21:11;;;;;;;7.73;3.93;;;;;;;33.62;38.87;101145.06;4973540;28;20223;-45
2022/08/04 09:23:49;;;;;;;5.00;3.30;;;;;;;33.73;39.12;101145.44;4972307;28;20289;-47
2022/08/04 09:26:25;;;;;;;3.93;3.63;;;;;;;33.92;38.37;101148.47;4973558;28;20205;-45
2022/08/04 09:29:03;;;;;;;5.50;3.50;;;;;;;33.98;39.77;101141.56;4973090;28;20226;-45
2022/08/04 09:31:36;;;;;;;5.33;3.50;;;;;;;34.21;38.54;101137.22;4973327;28;20293;-47
2022/08/04 09:34:35;;;;;;;4.47;3.90;;;;;;;34.40;37.09;101140.22;4965549;28;20574;-43
2022/08/04 09:37:12;;;;;;;5.30;3.50;;;;;;;34.46;36.95;101135.25;4973095;28;20656;-47
2022/08/04 09:39:49;;;;;;;3.73;3.43;;;;;;;34.35;37.06;101136.84;4972798;28;20612;-48
2022/08/04 09:42:27;;;;;;;6.50;3.70;;;;;;;34.36;38.00;101136.53;4972897;28;20803;-45
2022/08/04 09:45:07;;;;;;;4.20;3.45;;;;;;;34.31;36.95;101128.47;4973126;28;20270;-46
2022/08/04 09:47:47;;;;;;;3.97;3.28;;;;;;;34.49;36.63;101131.78;4972748;28;20229;-48
2022/08/04 09:50:26;;;;;;;5.05;3.20;;;;;;;34.68;35.50;101129.25;4973094;28;20202;-44
2022/08/04 09:53:02;;;;;;;5.73;3.00;;;;;;;34.69;35.74;101130.88;4973051;28;20202;-46
2022/08/04 09:55:40;;;;;;;11.90;3.50;;;;;;;34.59;35.13;101130.56;4972985;28;20198;-47
2022/08/04 09:58:32;;;;;;;4.53;3.50;;;;;;;34.74;34.25;101125.06;4972562;28;20569;-44
2022/08/04 10:01:03;;;;;;;5.72;3.20;;;;;;;34.83;34.81;101122.97;4972670;28;20231;-44
2022/08/04 10:03:34;;;;;;;3.20;3.00;;;;;;;34.79;35.52;101129.56;4972784;28;20256;-45
2022/08/04 10:06:10;;;;;;;3.38;2.92;;;;;;;34.80;35.51;101125.63;4973138;28;20206;-47
2022/08/04 10:09:00;;;;;;;5.45;2.72;;;;;;;34.80;35.22;101136.72;4972624;28;20230;-44
2022/08/04 10:11:41;;;;;;;6.13;3.08;;;;;;;34.90;35.38;101134.28;4972585;28;20219;-49
2022/08/04 10:14:37;;;;;;;4.75;3.38;;;;;;;35.19;34.86;101141.47;4972662;28;20206;-45
2022/08/04 10:17:20;;;;;;;3.88;3.47;;;;;;;35.30;33.05;101125.16;4972767;28;20199;-48
2022/08/04 10:19:55;;;;;;;3.65;3.22;;;;;;;35.37;35.25;101117.81;4972384;28;20300;-50
2022/08/04 10:22:27;;;;;;;4.05;3.22;;;;;;;35.49;34.09;101128.84;4969988;28;20703;-46
2022/08/04 10:25:21;;;;;;;3.55;3.25;;;;;;;35.54;34.04;101117.50;4968755;28;20226;-45
2022/08/04 10:28:13;;;;;;;5.15;3.58;;;;;;;35.72;32.68;101115.25;4961204;28;20570;-45
2022/08/04 10:30:47;;;;;;;4.10;3.55;;;;;;;35.69;32.98;101117.91;4957452;29;20211;-44
2022/08/04 10:33:23;;;;;;;4.70;3.63;;;;;;;35.75;32.58;101113.72;4957270;28;20208;-45
2022/08/04 10:35:53;;;;;;;3.65;3.45;;;;;;;35.69;32.59;101115.16;4976520;28;20195;-46
2022/08/04 10:38:25;;;;;;;4.53;4.05;;;;;;;35.63;33.04;101111.84;4975858;28;20231;-46
2022/08/04 10:41:00;;;;;;;3.78;3.47;;;;;;;35.74;31.34;101101.81;4976724;28;20222;-43
2022/08/04 10:43:39;;;;;;;3.30;3.05;;;;;;;35.91;32.71;101115.31;4976317;28;20198;-46
2022/08/04 10:46:10;;;;;;;3.63;3.30;;;;;;;35.85;31.54;101100.09;4976426;28;20195;-48
2022/08/04 10:48:44;;;;;;;3.63;3.42;;;;;;;36.06;31.98;101097.06;4975923;28;20234;-47
2022/08/04 10:51:21;;;;;;;3.78;3.50;;;;;;;36.10;31.89;101100.75;4974959;28;20665;-44
2022/08/04 10:53:55;;;;;;;3.90;3.58;;;;;;;35.93;32.04;101101.09;4976114;28;20218;-47
2022/08/04 10:56:30;;;;;;;3.22;3.03;;;;;;;35.94;32.32;101089.63;4976288;28;20213;-44
2022/08/04 10:59:03;;;;;;;5.93;3.30;;;;;;;35.79;32.24;101095.19;4975639;28;20226;-46
2022/08/04 11:01:35;;;;;;;3.55;3.35;;;;;;;35.71;32.42;101091.44;4975914;28;20309;-47
2022/08/04 11:04:31;;;;;;;5.00;3.47;;;;;;;35.77;31.59;101087.22;4976066;28;20206;-45
2022/08/04 11:07:00;;;;;;;4.35;3.88;;;;;;;35.84;31.66;101075.50;4975638;28;20213;-45
2022/08/04 11:09:29;;;;;;;4.65;3.80;;;;;;;35.85;31.65;101088.19;4975385;28;20264;-45
2022/08/04 11:12:06;;;;;;;10.77;4.00;;;;;;;35.79;30.85;101081.28;4975604;28;20219;-48
2022/08/04 11:14:37;;;;;;;3.55;3.25;;;;;;;35.78;31.39;101085.25;4975942;28;20301;-47
2022/08/04 11:17:11;;;;;;;3.38;2.67;;;;;;;35.81;30.09;101085.31;5013426;23;20229;-43
2022/08/04 11:19:46;;;;;;;3.42;3.13;;;;;;;35.78;30.49;101082.47;4987090;28;20228;-43
2022/08/04 11:22:26;;;;;;;3.20;3.00;;;;;;;35.63;30.96;101075.78;4994896;28;20289;-43
2022/08/04 11:25:04;;;;;;;3.67;3.38;;;;;;;35.66;30.86;101074.25;4995370;28;20590;-41
2022/08/04 11:27:43;;;;;;;2.70;2.60;;;;;;;35.97;31.06;101066.69;4994994;28;20730;-43
2022/08/04 11:30:14;;;;;;;4.45;3.35;;;;;;;36.08;31.09;101067.00;4994618;28;20317;-43
2022/08/04 11:32:46;;;;;;;4.07;3.65;;;;;;;36.16;30.49;101068.78;4994716;28;20205;-44
2022/08/04 11:35:26;;;;;;;3.42;3.20;;;;;;;36.41;29.93;101066.56;4995513;28;20552;-42
2022/08/04 11:38:04;;;;;;;4.13;3.45;;;;;;;36.17;30.67;101075.13;5007392;28;20204;-41
2022/08/04 11:40:38;;;;;;;4.63;3.17;;;;;;;35.73;30.35;101066.91;5014515;28;20566;-42
2022/08/04 11:43:09;;;;;;;3.45;3.15;;;;;;;35.73;30.38;101069.66;5014144;28;20197;-44
2022/08/04 11:45:45;;;;;;;3.20;2.97;;;;;;;36.06;28.99;101064.56;5014041;28;20229;-45
2022/08/04 11:48:18;;;;;;;3.20;2.90;;;;;;;36.16;29.59;101070.75;5013748;28;20228;-42
2022/08/04 11:50:52;;;;;;;3.50;2.92;;;;;;;36.37;28.31;101060.94;5014261;28;20212;-41
2022/08/04 11:53:23;;;;;;;3.10;2.83;;;;;;;36.48;27.92;101067.53;5013942;28;20197;-44
2022/08/04 11:55:54;;;;;;;3.00;2.80;;;;;;;36.62;28.68;101063.47;5014363;28;20221;-42
2022/08/04 11:58:36;;;;;;;2.95;2.67;;;;;;;36.76;27.87;101053.47;5013736;28;20241;-43
2022/08/04 12:01:11;;;;;;;3.42;3.15;;;;;;;36.82;27.19;101059.53;5013684;28;20663;-42
2022/08/04 12:03:53;;;;;;;3.15;3.05;;;;;;;36.90;28.08;101061.28;5013958;28;20198;-43
2022/08/04 12:06:38;;;;;;;3.08;2.88;;;;;;;36.98;28.47;101061.06;5013902;28;20729;-41
2022/08/04 12:09:17;;;;;;;3.15;2.95;;;;;;;37.17;28.86;101060.25;5013514;28;20225;-45
2022/08/04 12:11:55;;;;;;;3.58;3.22;;;;;;;37.01;26.38;101057.56;5013915;28;20198;-43
2022/08/04 12:14:33;;;;;;;3.08;2.83;;;;;;;36.96;28.37;101054.25;5013127;28;20201;-41